Route Details

Aircraft Information
Group: Large Widebodies
Types: B744, MD11
Route Data
Distance: 4939nm
Duration: 0h 00m
Origin METAR: EDDK 260120Z AUTO VRB01KT CAVOK 11/11 Q1017 NOSIG
Dest. METAR: KONT 260053Z 22011KT 10SM SCT044 21/08 A2994 RMK AO2 SLP133 T02060078
Freight Data
(for May 26, 2024)
Load Factor:
102%
Manifested Cargo: 218,494lbs
Financial History
Total Freight: 0lbs
Average Load: 0lbs/flt
Fuel Used: 0lbs
Avg. Fuel Used: 0lbs/flt
Fuel Expense: $0
Avg. Fuel Expense: $0
Avg. Fuel Cost: $0/lbs
Total Gross Income: $0
Pilot Pay: $0
Total Expenses: $0
Total Revenue: $0
Average Revenue: $0

Capitol Logistics 191




EDDK
Cologne Bonn Airport
Cologne, DE
KONT
Ontario International Airport
Ontario, US

Activity Log

Date Flight Route Aircraft Duration
No Flights Yet